createdAt,value
2023-08-08T00:00:01.462Z,100223.63
2023-08-08T00:01:03.980Z,100219.13
2023-08-08T00:02:07.092Z,100227.38
2023-08-08T00:03:10.260Z,100228.44
2023-08-08T00:04:12.649Z,100225.47
2023-08-08T00:05:14.986Z,100221.41
2023-08-08T00:06:17.284Z,100233.34
2023-08-08T00:07:19.892Z,100227.84
2023-08-08T00:08:22.313Z,100235.09
2023-08-08T00:09:24.702Z,100232.31
2023-08-08T00:10:27.170Z,100233.34
2023-08-08T00:11:29.369Z,100231.31
2023-08-08T00:12:31.846Z,100229.59
2023-08-08T00:13:34.325Z,100231.63
2023-08-08T00:14:36.520Z,100244.97
2023-08-08T00:15:38.981Z,100235.44
2023-08-08T00:16:41.173Z,100242.47
2023-08-08T00:17:43.630Z,100246.03
2023-08-08T00:18:46.261Z,100244.78
2023-08-08T00:19:48.473Z,100238.53
2023-08-08T00:20:51.033Z,100234.41
2023-08-08T00:21:53.227Z,100235.84
2023-08-08T00:22:55.449Z,100237.56
2023-08-08T00:23:58.019Z,100240.16
2023-08-08T00:25:00.276Z,100245.06
2023-08-08T00:26:02.521Z,100242.56
2023-08-08T00:27:05.079Z,100241.09
2023-08-08T00:28:07.379Z,100230.63
2023-08-08T00:29:10.167Z,100246.69
2023-08-08T00:30:16.463Z,100239.91
2023-08-08T00:31:20.924Z,100241.16
2023-08-08T00:32:23.590Z,100240.91
2023-08-08T00:33:25.836Z,100243.75
2023-08-08T00:34:28.084Z,100240.69
2023-08-08T00:35:30.810Z,100244.25
2023-08-08T00:36:33.079Z,100243.84
2023-08-08T00:37:35.425Z,100252.03
2023-08-08T00:38:37.993Z,100244.91
2023-08-08T00:39:43.494Z,100246.44
2023-08-08T00:40:47.383Z,100243.28
2023-08-08T00:41:49.762Z,100238.34
2023-08-08T00:42:52.025Z,100238.06
2023-08-08T00:43:54.418Z,100246.81
2023-08-08T00:45:02.932Z,100238.84
2023-08-08T00:46:05.380Z,100241.44
2023-08-08T00:47:10.400Z,100231.03
2023-08-08T00:48:12.938Z,100242.59
2023-08-08T00:49:15.518Z,100242.50
2023-08-08T00:50:19.151Z,100243.34
2023-08-08T00:51:22.507Z,100228.06
2023-08-08T00:52:24.841Z,100234.41
2023-08-08T00:53:29.368Z,100241.53
2023-08-08T00:54:32.259Z,100243.19
2023-08-08T00:55:34.940Z,100242.75
2023-08-08T00:56:38.661Z,100242.69
2023-08-08T00:57:41.593Z,100241.03
2023-08-08T00:58:46.873Z,100237.47
2023-08-08T00:59:49.498Z,100233.47
2023-08-08T01:00:53.548Z,100245.97
2023-08-08T01:01:58.439Z,100252.22
2023-08-08T01:03:00.940Z,100241.91
2023-08-08T01:04:07.518Z,100252.34
2023-08-08T01:05:10.538Z,100254.16
2023-08-08T01:06:35.160Z,100238.63
2023-08-08T01:07:49.278Z,100233.81
2023-08-08T01:09:01.095Z,100236.44
2023-08-08T01:10:18.083Z,100234.53
2023-08-08T01:11:20.575Z,100236.44
2023-08-08T01:12:24.625Z,100242.69
2023-08-08T01:13:31.560Z,100239.13
2023-08-08T01:14:36.894Z,100235.38
2023-08-08T01:15:39.641Z,100238.44
2023-08-08T01:16:44.013Z,100239.41
2023-08-08T01:17:48.423Z,100239.66
2023-08-08T01:18:51.557Z,100243.25
2023-08-08T01:19:54.526Z,100236.91
2023-08-08T01:20:57.941Z,100241.78
2023-08-08T01:22:05.478Z,100242.38
2023-08-08T01:23:17.590Z,100243.75
2023-08-08T01:24:21.122Z,100244.63
2023-08-08T01:25:24.468Z,100242.47
2023-08-08T01:26:27.885Z,100237.75
2023-08-08T01:27:30.325Z,100231.56
2023-08-08T01:28:32.558Z,100235.16
2023-08-08T01:29:35.161Z,100241.31
2023-08-08T01:30:38.047Z,100229.00
2023-08-08T01:31:40.297Z,100229.59
2023-08-08T01:32:42.504Z,100233.81
2023-08-08T01:33:45.049Z,100238.88
2023-08-08T01:34:47.562Z,100230.63
2023-08-08T01:36:02.030Z,100231.00
2023-08-08T01:37:19.048Z,100230.22
2023-08-08T01:38:42.967Z,100233.63
2023-08-08T01:39:47.962Z,100227.69
2023-08-08T01:40:50.794Z,100227.63
2023-08-08T01:41:55.030Z,100229.16
2023-08-08T01:42:57.707Z,100230.72
2023-08-08T01:44:01.593Z,100227.59
2023-08-08T01:45:05.224Z,100231.91
2023-08-08T01:46:08.648Z,100224.72
2023-08-08T01:47:11.200Z,100225.59
2023-08-08T01:48:13.586Z,100230.97
2023-08-08T01:49:16.346Z,100228.97
2023-08-08T01:50:19.153Z,100222.28
2023-08-08T01:51:21.358Z,100227.09
2023-08-08T01:52:24.030Z,100224.56
2023-08-08T01:53:26.326Z,100230.22
2023-08-08T01:54:28.960Z,100225.63
2023-08-08T01:55:32.465Z,100224.56
2023-08-08T01:56:34.725Z,100233.91
2023-08-08T01:57:37.127Z,100222.94
2023-08-08T01:58:39.421Z,100225.66
2023-08-08T01:59:41.727Z,100218.84
2023-08-08T02:00:46.222Z,100228.50
2023-08-08T02:01:48.437Z,100218.53
2023-08-08T02:02:50.972Z,100218.72
2023-08-08T02:03:53.766Z,100230.59
2023-08-08T02:04:57.893Z,100237.81
2023-08-08T02:06:01.721Z,100220.56
2023-08-08T02:07:04.165Z,100229.13
2023-08-08T02:08:07.180Z,100222.09
2023-08-08T02:09:11.367Z,100221.84
2023-08-08T02:10:13.819Z,100226.81
2023-08-08T02:11:16.115Z,100228.84
2023-08-08T02:12:18.511Z,100225.13
2023-08-08T02:13:20.712Z,100228.69
2023-08-08T02:14:24.135Z,100235.13
2023-08-08T02:15:26.562Z,100236.16
2023-08-08T02:16:28.939Z,100229.94
2023-08-08T02:17:31.493Z,100239.25
2023-08-08T02:18:33.813Z,100237.69
2023-08-08T02:19:37.643Z,100234.06
2023-08-08T02:20:40.342Z,100235.84
2023-08-08T02:21:42.568Z,100231.88
2023-08-08T02:22:46.118Z,100235.78
2023-08-08T02:23:48.581Z,100231.94
2023-08-08T02:24:51.227Z,100228.03
2023-08-08T02:25:54.384Z,100228.44
2023-08-08T02:26:57.156Z,100230.28
2023-08-08T02:27:59.372Z,100224.97
2023-08-08T02:29:01.893Z,100220.16
2023-08-08T02:30:07.462Z,100229.66
2023-08-08T02:31:09.974Z,100229.50
2023-08-08T02:32:15.162Z,100225.84
2023-08-08T02:33:17.387Z,100225.25
2023-08-08T02:34:19.621Z,100234.56
2023-08-08T02:35:22.060Z,100237.53
2023-08-08T02:36:24.527Z,100230.06
2023-08-08T02:37:26.884Z,100235.06
2023-08-08T02:38:29.382Z,100238.03
2023-08-08T02:39:31.762Z,100238.28
2023-08-08T02:40:34.860Z,100235.97
2023-08-08T02:41:37.584Z,100233.63
2023-08-08T02:42:39.821Z,100237.53
2023-08-08T02:43:43.174Z,100238.72
2023-08-08T02:44:45.562Z,100239.00
2023-08-08T02:45:48.029Z,100245.03
2023-08-08T02:46:50.342Z,100243.66
2023-08-08T02:47:52.591Z,100244.69
2023-08-08T02:48:55.110Z,100239.28
2023-08-08T02:49:57.568Z,100239.41
2023-08-08T02:51:00.298Z,100231.00
2023-08-08T02:52:03.996Z,100234.56
2023-08-08T02:53:09.530Z,100236.91
2023-08-08T02:54:17.713Z,100231.09
2023-08-08T02:55:20.287Z,100233.66
2023-08-08T02:56:25.934Z,100230.84
2023-08-08T02:57:29.435Z,100223.91
2023-08-08T02:58:32.168Z,100221.75
2023-08-08T02:59:35.646Z,100226.16
2023-08-08T03:00:41.196Z,100231.38
2023-08-08T03:01:48.742Z,100231.19
2023-08-08T03:02:53.828Z,100233.34
2023-08-08T03:03:56.499Z,100237.88
2023-08-08T03:05:00.894Z,100229.28
2023-08-08T03:06:04.902Z,100231.97
2023-08-08T03:07:07.661Z,100236.22
2023-08-08T03:08:12.074Z,100230.75
2023-08-08T03:09:14.531Z,100233.34
2023-08-08T03:10:17.878Z,100219.81
2023-08-08T03:11:20.768Z,100234.13
2023-08-08T03:12:24.269Z,100232.84
2023-08-08T03:13:28.530Z,100230.72
2023-08-08T03:14:32.025Z,100221.88
2023-08-08T03:15:37.034Z,100230.47
2023-08-08T03:16:41.000Z,100228.41
2023-08-08T03:17:44.655Z,100228.50
2023-08-08T03:18:47.088Z,100227.47
2023-08-08T03:19:50.459Z,100224.59
2023-08-08T03:20:53.399Z,100230.94
2023-08-08T03:21:56.774Z,100225.31
2023-08-08T03:22:59.039Z,100222.19
2023-08-08T03:24:01.305Z,100233.72
2023-08-08T03:25:05.405Z,100226.34
2023-08-08T03:26:07.872Z,100226.25
2023-08-08T03:27:11.359Z,100233.72
2023-08-08T03:28:14.108Z,100232.88
2023-08-08T03:29:16.330Z,100226.59
2023-08-08T03:30:23.117Z,100232.41
2023-08-08T03:31:27.417Z,100232.16
2023-08-08T03:32:30.760Z,100229.63
2023-08-08T03:33:33.005Z,100229.63
2023-08-08T03:34:37.835Z,100230.84
2023-08-08T03:35:40.808Z,100230.19
2023-08-08T03:36:43.650Z,100232.31
2023-08-08T03:37:46.723Z,100228.00
2023-08-08T03:38:49.058Z,100228.84
2023-08-08T03:39:51.485Z,100227.28
2023-08-08T03:40:53.932Z,100229.84
2023-08-08T03:41:56.446Z,100228.78
2023-08-08T03:42:58.676Z,100225.66
2023-08-08T03:44:00.968Z,100223.41
2023-08-08T03:45:03.752Z,100224.19
2023-08-08T03:46:06.611Z,100225.41
2023-08-08T03:47:18.489Z,100233.22
2023-08-08T03:48:22.365Z,100224.25
2023-08-08T03:49:24.947Z,100227.84
2023-08-08T03:50:27.366Z,100227.84
2023-08-08T03:51:29.795Z,100224.25
2023-08-08T03:52:35.420Z,100226.72
2023-08-08T03:53:38.089Z,100230.06
2023-08-08T03:54:41.717Z,100224.69
2023-08-08T03:55:44.264Z,100228.63
2023-08-08T03:56:47.129Z,100234.59
2023-08-08T03:57:49.571Z,100236.41
2023-08-08T03:58:51.848Z,100227.28
2023-08-08T03:59:54.123Z,100236.06
2023-08-08T04:00:57.973Z,100235.34
2023-08-08T04:02:00.940Z,100235.34
2023-08-08T04:03:03.458Z,100240.81
2023-08-08T04:04:06.749Z,100232.50
2023-08-08T04:05:09.763Z,100231.53
2023-08-08T04:06:12.056Z,100225.91
2023-08-08T04:07:14.765Z,100233.63
2023-08-08T04:08:19.174Z,100234.78
2023-08-08T04:09:23.445Z,100235.44
2023-08-08T04:10:25.729Z,100237.97
2023-08-08T04:11:27.986Z,100235.97
2023-08-08T04:12:30.744Z,100237.47
2023-08-08T04:13:32.999Z,100235.78
2023-08-08T04:14:35.292Z,100234.50
2023-08-08T04:15:37.722Z,100235.97
2023-08-08T04:16:40.743Z,100236.41
2023-08-08T04:17:43.118Z,100238.03
2023-08-08T04:18:45.308Z,100238.41
2023-08-08T04:19:47.592Z,100235.97
2023-08-08T04:20:50.034Z,100225.22
2023-08-08T04:21:52.472Z,100238.13
2023-08-08T04:22:54.695Z,100226.50
2023-08-08T04:23:56.936Z,100235.53
2023-08-08T04:24:59.141Z,100236.75
2023-08-08T04:26:01.618Z,100231.75
2023-08-08T04:27:04.981Z,100242.22
2023-08-08T04:28:07.291Z,100236.91
2023-08-08T04:29:09.729Z,100238.38
2023-08-08T04:30:12.086Z,100239.69
2023-08-08T04:31:15.205Z,100242.22
2023-08-08T04:32:17.843Z,100238.03
2023-08-08T04:33:20.059Z,100236.13
2023-08-08T04:34:22.336Z,100239.50
2023-08-08T04:35:24.565Z,100234.91
2023-08-08T04:36:30.337Z,100239.59
2023-08-08T04:37:32.772Z,100239.59
2023-08-08T04:38:35.076Z,100246.03
2023-08-08T04:39:37.267Z,100239.19
2023-08-08T04:40:39.759Z,100241.44
2023-08-08T04:41:42.010Z,100244.41
2023-08-08T04:42:44.457Z,100237.19
2023-08-08T04:43:46.725Z,100244.81
2023-08-08T04:44:48.929Z,100241.94
2023-08-08T04:45:52.228Z,100240.72
2023-08-08T04:46:54.856Z,100248.78
2023-08-08T04:47:57.089Z,100247.50
2023-08-08T04:48:59.359Z,100253.75
2023-08-08T04:50:01.830Z,100247.09
2023-08-08T04:51:06.374Z,100247.09
2023-08-08T04:52:09.076Z,100243.25
2023-08-08T04:53:11.328Z,100246.72
2023-08-08T04:54:13.555Z,100251.06
2023-08-08T04:55:16.068Z,100243.44
2023-08-08T04:56:18.278Z,100243.63
2023-08-08T04:57:20.702Z,100253.13
2023-08-08T04:58:23.078Z,100246.19
2023-08-08T04:59:25.266Z,100252.72
2023-08-08T05:00:27.760Z,100251.41
2023-08-08T05:01:30.074Z,100253.75
2023-08-08T05:02:32.437Z,100255.16
2023-08-08T05:03:34.823Z,100255.94
2023-08-08T05:04:40.441Z,100252.53
2023-08-08T05:05:42.718Z,100253.75
2023-08-08T05:06:45.434Z,100251.22
2023-08-08T05:07:47.865Z,100255.66
2023-08-08T05:08:52.522Z,100260.25
2023-08-08T05:09:55.027Z,100254.69
2023-08-08T05:10:57.461Z,100256.44
2023-08-08T05:12:00.069Z,100259.75
2023-08-08T05:13:02.906Z,100263.09
2023-08-08T05:14:05.424Z,100261.03
2023-08-08T05:15:11.108Z,100264.75
2023-08-08T05:16:13.359Z,100266.13
2023-08-08T05:17:15.606Z,100253.72
2023-08-08T05:18:18.238Z,100264.41
2023-08-08T05:19:20.510Z,100265.63
2023-08-08T05:20:23.373Z,100257.53
2023-08-08T05:21:25.660Z,100260.81
2023-08-08T05:22:27.904Z,100265.50
2023-08-08T05:23:30.523Z,100260.13
2023-08-08T05:24:32.823Z,100264.41
2023-08-08T05:25:35.039Z,100258.09
2023-08-08T05:26:37.571Z,100259.19
2023-08-08T05:27:39.977Z,100259.69
2023-08-08T05:28:42.744Z,100262.50
2023-08-08T05:29:45.071Z,100262.31
2023-08-08T05:30:47.551Z,100256.56
2023-08-08T05:31:50.119Z,100256.47
2023-08-08T05:32:52.617Z,100258.31
2023-08-08T05:33:55.141Z,100255.59
2023-08-08T05:34:58.898Z,100263.06
2023-08-08T05:36:01.259Z,100264.63
2023-08-08T05:37:15.988Z,100263.97
2023-08-08T05:38:19.911Z,100256.75
2023-08-08T05:39:22.320Z,100264.34
2023-08-08T05:40:25.087Z,100264.25
2023-08-08T05:41:27.472Z,100263.78
2023-08-08T05:42:30.698Z,100267.81
2023-08-08T05:43:32.915Z,100263.69
2023-08-08T05:44:35.193Z,100270.22
2023-08-08T05:45:37.769Z,100259.53
2023-08-08T05:46:40.040Z,100269.28
2023-08-08T05:47:42.546Z,100261.34
2023-08-08T05:48:46.322Z,100257.97
2023-08-08T05:49:49.885Z,100254.00
2023-08-08T05:50:52.516Z,100263.22
2023-08-08T05:51:54.757Z,100259.28
2023-08-08T05:52:57.014Z,100261.78
2023-08-08T05:54:00.375Z,100261.31
2023-08-08T05:55:06.514Z,100260.03
2023-08-08T05:56:09.968Z,100252.28
2023-08-08T05:57:12.556Z,100247.06
2023-08-08T05:58:15.023Z,100253.38
2023-08-08T05:59:17.259Z,100251.25
2023-08-08T06:00:20.060Z,100255.06
2023-08-08T06:01:22.323Z,100257.06
2023-08-08T06:02:24.680Z,100254.84
2023-08-08T06:03:27.241Z,100249.00
2023-08-08T06:04:29.581Z,100265.63
2023-08-08T06:05:32.072Z,100252.44
2023-08-08T06:06:34.372Z,100253.63
2023-08-08T06:07:36.591Z,100260.66
2023-08-08T06:08:38.827Z,100252.97
2023-08-08T06:09:41.330Z,100260.75
2023-08-08T06:10:43.944Z,100269.38
2023-08-08T06:11:46.224Z,100263.75
2023-08-08T06:12:48.605Z,100261.03
2023-08-08T06:13:50.857Z,100259.53
2023-08-08T06:14:53.130Z,100257.09
2023-08-08T06:15:55.835Z,100261.47
2023-08-08T06:16:58.086Z,100258.59
2023-08-08T06:18:01.038Z,100252.97
2023-08-08T06:19:04.190Z,100255.47
2023-08-08T06:20:08.154Z,100253.63
2023-08-08T06:21:10.958Z,100253.50
2023-08-08T06:22:13.524Z,100250.38
2023-08-08T06:23:16.364Z,100249.91
2023-08-08T06:24:18.895Z,100247.91
2023-08-08T06:25:21.368Z,100249.16
2023-08-08T06:26:24.315Z,100248.78
2023-08-08T06:27:26.591Z,100249.75
2023-08-08T06:28:28.808Z,100249.47
2023-08-08T06:29:31.966Z,100250.09
2023-08-08T06:30:34.714Z,100255.38
2023-08-08T06:31:37.198Z,100250.28
2023-08-08T06:32:39.477Z,100255.00
2023-08-08T06:33:42.014Z,100244.56
2023-08-08T06:34:44.505Z,100242.44
2023-08-08T06:35:47.055Z,100243.06
2023-08-08T06:36:49.498Z,100245.38
2023-08-08T06:37:51.735Z,100246.97
2023-08-08T06:38:54.218Z,100245.53
2023-08-08T06:39:56.772Z,100257.56
2023-08-08T06:40:59.225Z,100253.63
2023-08-08T06:42:01.787Z,100246.34
2023-08-08T06:43:15.064Z,100241.63
2023-08-08T06:44:17.369Z,100243.00
2023-08-08T06:45:20.203Z,100255.34
2023-08-08T06:46:22.775Z,100248.91
2023-08-08T06:47:25.047Z,100246.06
2023-08-08T06:48:27.315Z,100247.69
2023-08-08T06:49:29.732Z,100251.25
2023-08-08T06:50:32.016Z,100249.91
2023-08-08T06:51:34.627Z,100248.94
2023-08-08T06:52:36.907Z,100254.44
2023-08-08T06:53:39.622Z,100248.31
2023-08-08T06:54:41.851Z,100246.06
2023-08-08T06:55:44.250Z,100242.97
2023-08-08T06:56:46.867Z,100242.06
2023-08-08T06:57:49.054Z,100242.94
2023-08-08T06:58:51.241Z,100244.31
2023-08-08T06:59:54.189Z,100247.34
2023-08-08T07:00:56.573Z,100247.88
2023-08-08T07:01:59.364Z,100243.88
2023-08-08T07:03:02.601Z,100258.47
2023-08-08T07:04:05.018Z,100250.66
2023-08-08T07:05:08.034Z,100247.75
2023-08-08T07:06:11.068Z,100249.44
2023-08-08T07:07:13.503Z,100254.78
2023-08-08T07:08:15.857Z,100244.34
2023-08-08T07:09:18.202Z,100244.34
2023-08-08T07:10:20.861Z,100253.34
2023-08-08T07:11:23.348Z,100250.03
2023-08-08T07:12:25.807Z,100245.84
2023-08-08T07:13:28.593Z,100252.00
2023-08-08T07:14:31.172Z,100252.59
2023-08-08T07:15:33.487Z,100255.00
2023-08-08T07:16:35.967Z,100257.03
2023-08-08T07:17:38.529Z,100253.50
2023-08-08T07:18:40.839Z,100251.78
2023-08-08T07:19:43.079Z,100247.13
2023-08-08T07:20:45.486Z,100244.63
2023-08-08T07:21:48.160Z,100255.53
2023-08-08T07:22:50.409Z,100246.75
2023-08-08T07:23:53.178Z,100243.47
2023-08-08T07:24:55.491Z,100242.03
2023-08-08T07:25:57.917Z,100244.63
2023-08-08T07:27:00.961Z,100247.28
2023-08-08T07:28:03.673Z,100254.56
2023-08-08T07:29:07.153Z,100249.81
2023-08-08T07:30:09.905Z,100245.28
2023-08-08T07:31:12.431Z,100245.50
2023-08-08T07:32:14.927Z,100252.00
2023-08-08T07:33:17.644Z,100246.13
2023-08-08T07:34:20.555Z,100249.63
2023-08-08T07:35:22.814Z,100247.81
2023-08-08T07:36:25.115Z,100249.91
2023-08-08T07:37:27.748Z,100237.97
2023-08-08T07:38:29.982Z,100251.16
2023-08-08T07:39:32.523Z,100248.94
2023-08-08T07:40:34.914Z,100244.88
2023-08-08T07:41:37.276Z,100248.25
2023-08-08T07:42:39.917Z,100247.50
2023-08-08T07:43:42.229Z,100245.25
2023-08-08T07:44:44.726Z,100239.00
2023-08-08T07:45:46.946Z,100237.09
2023-08-08T07:46:49.236Z,100240.53
2023-08-08T07:47:51.881Z,100241.53
2023-08-08T07:48:54.109Z,100233.34
2023-08-08T07:49:56.351Z,100233.50
2023-08-08T07:50:58.815Z,100240.88
2023-08-08T07:52:01.365Z,100235.53
2023-08-08T07:53:04.353Z,100233.66
2023-08-08T07:54:09.544Z,100231.88
2023-08-08T07:55:11.841Z,100236.91
2023-08-08T07:56:15.023Z,100234.81
2023-08-08T07:57:17.259Z,100226.97
2023-08-08T07:58:20.720Z,100232.16
2023-08-08T07:59:24.974Z,100230.91
2023-08-08T08:00:27.482Z,100230.91
2023-08-08T08:01:30.518Z,100229.09
2023-08-08T08:02:33.008Z,100226.56
2023-08-08T08:03:42.959Z,100235.34
2023-08-08T08:04:45.273Z,100237.72
2023-08-08T08:05:47.830Z,100238.31
2023-08-08T08:06:50.084Z,100250.00
2023-08-08T08:07:52.715Z,100234.03
2023-08-08T08:08:54.929Z,100234.44
2023-08-08T08:09:57.191Z,100239.31
2023-08-08T08:11:00.075Z,100242.66
2023-08-08T08:12:02.457Z,100242.81
2023-08-08T08:13:05.484Z,100250.94
2023-08-08T08:14:07.868Z,100248.59
2023-08-08T08:15:10.628Z,100237.53
2023-08-08T08:16:13.068Z,100243.09
2023-08-08T08:17:15.481Z,100245.47
2023-08-08T08:18:19.724Z,100247.94
2023-08-08T08:19:22.164Z,100245.94
2023-08-08T08:20:24.661Z,100234.69
2023-08-08T08:21:27.112Z,100233.72
2023-08-08T08:22:29.339Z,100228.88
2023-08-08T08:23:33.550Z,100227.50
2023-08-08T08:24:35.963Z,100234.72
2023-08-08T08:25:38.153Z,100224.25
2023-08-08T08:26:40.585Z,100229.66
2023-08-08T08:27:43.016Z,100223.09
2023-08-08T08:28:45.433Z,100237.50
2023-08-08T08:29:47.638Z,100232.78
2023-08-08T08:30:50.766Z,100231.41
2023-08-08T08:31:53.021Z,100228.97
2023-08-08T08:32:55.264Z,100239.84
2023-08-08T08:33:57.887Z,100226.13
2023-08-08T08:35:00.351Z,100233.63
2023-08-08T08:36:02.836Z,100232.88
2023-08-08T08:37:05.092Z,100229.41
2023-08-08T08:38:08.214Z,100237.41
2023-08-08T08:39:10.559Z,100232.19
2023-08-08T08:40:13.573Z,100229.94
2023-08-08T08:41:19.693Z,100235.19
2023-08-08T08:42:22.873Z,100226.06
2023-08-08T08:43:26.193Z,100223.47
2023-08-08T08:44:31.239Z,100220.88
2023-08-08T08:45:38.196Z,100225.72
2023-08-08T08:46:41.393Z,100224.59
2023-08-08T08:47:47.262Z,100227.06
2023-08-08T08:48:55.986Z,100229.66
2023-08-08T08:49:58.767Z,100234.72
2023-08-08T08:51:01.335Z,100218.31
2023-08-08T08:52:05.978Z,100223.72
2023-08-08T08:53:08.705Z,100234.34
2023-08-08T08:54:12.279Z,100241.25
2023-08-08T08:55:14.542Z,100238.31
2023-08-08T08:56:18.011Z,100230.09
2023-08-08T08:57:22.602Z,100232.41
2023-08-08T08:58:26.087Z,100236.56
2023-08-08T08:59:28.601Z,100227.09
2023-08-08T09:00:31.767Z,100236.50
2023-08-08T09:01:34.442Z,100228.16
2023-08-08T09:02:37.834Z,100234.91
2023-08-08T09:03:41.680Z,100240.84
2023-08-08T09:04:44.277Z,100232.59
2023-08-08T09:05:49.262Z,100242.72
2023-08-08T09:06:52.307Z,100242.84
2023-08-08T09:07:54.845Z,100237.78
2023-08-08T09:09:03.338Z,100237.19
2023-08-08T09:10:09.428Z,100229.66
2023-08-08T09:11:12.065Z,100237.00
2023-08-08T09:12:14.615Z,100237.38
2023-08-08T09:13:18.258Z,100234.97
2023-08-08T09:14:24.735Z,100241.75
2023-08-08T09:15:31.616Z,100232.66
2023-08-08T09:16:34.104Z,100236.97
2023-08-08T09:17:46.585Z,100240.97
2023-08-08T09:18:52.850Z,100241.56
2023-08-08T09:19:56.319Z,100232.94
2023-08-08T09:20:59.429Z,100240.13
2023-08-08T09:22:02.958Z,100236.66
2023-08-08T09:23:05.538Z,100229.16
2023-08-08T09:24:08.421Z,100235.84
2023-08-08T09:25:10.825Z,100231.00
2023-08-08T09:26:15.144Z,100226.09
2023-08-08T09:27:18.185Z,100227.34
2023-08-08T09:28:20.665Z,100233.72
2023-08-08T09:29:23.170Z,100227.38
2023-08-08T09:30:26.991Z,100227.38
2023-08-08T09:31:29.604Z,100237.91
2023-08-08T09:32:32.942Z,100231.25
2023-08-08T09:33:35.498Z,100232.72
2023-08-08T09:34:38.021Z,100233.38
2023-08-08T09:35:40.563Z,100225.09
2023-08-08T09:36:43.033Z,100240.78
2023-08-08T09:37:45.341Z,100237.97
2023-08-08T09:38:47.834Z,100232.38
2023-08-08T09:40:00.838Z,100233.94
2023-08-08T09:41:03.295Z,100230.41
2023-08-08T09:42:06.051Z,100226.31
2023-08-08T09:43:09.538Z,100234.94
2023-08-08T09:44:12.046Z,100225.22
2023-08-08T09:45:14.451Z,100234.22
2023-08-08T09:46:17.161Z,100229.78
2023-08-08T09:47:20.896Z,100231.97
2023-08-08T09:48:30.205Z,100232.72
2023-08-08T09:49:35.524Z,100222.44
2023-08-08T09:50:39.016Z,100235.88
2023-08-08T09:51:41.430Z,100229.44
2023-08-08T09:52:44.767Z,100229.88
2023-08-08T09:53:48.296Z,100222.38
2023-08-08T09:54:51.543Z,100226.00
2023-08-08T09:55:56.149Z,100229.53
2023-08-08T09:56:59.653Z,100225.22
2023-08-08T09:58:03.838Z,100225.53
2023-08-08T09:59:07.487Z,100226.13
2023-08-08T10:00:17.652Z,100227.44
2023-08-08T10:01:21.564Z,100228.84
2023-08-08T10:02:24.094Z,100217.34
2023-08-08T10:03:27.695Z,100214.44
2023-08-08T10:04:29.996Z,100222.91
2023-08-08T10:05:32.946Z,100227.97
2023-08-08T10:06:35.282Z,100227.31
2023-08-08T10:07:37.597Z,100223.66
2023-08-08T10:08:40.120Z,100227.44
2023-08-08T10:09:42.871Z,100226.25
2023-08-08T10:10:50.759Z,100233.81
2023-08-08T10:11:54.524Z,100231.09
2023-08-08T10:12:56.772Z,100227.47
2023-08-08T10:14:01.392Z,100220.47
2023-08-08T10:15:04.756Z,100224.94
2023-08-08T10:16:10.439Z,100222.53
2023-08-08T10:17:16.758Z,100219.03
2023-08-08T10:18:20.194Z,100213.00
2023-08-08T10:19:24.317Z,100220.50
2023-08-08T10:20:36.682Z,100215.19
2023-08-08T10:21:43.043Z,100215.91
2023-08-08T10:22:48.092Z,100216.63
2023-08-08T10:23:50.849Z,100223.66
2023-08-08T10:24:55.024Z,100211.63
2023-08-08T10:25:57.619Z,100218.34
2023-08-08T10:27:03.150Z,100222.50
2023-08-08T10:28:26.222Z,100208.72
2023-08-08T10:29:32.500Z,100214.94
2023-08-08T10:30:45.686Z,100199.66
2023-08-08T10:32:02.779Z,100206.81
2023-08-08T10:33:05.599Z,100206.38
2023-08-08T10:34:08.565Z,100196.63
2023-08-08T10:35:13.087Z,100194.03
2023-08-08T10:36:15.339Z,100202.06
2023-08-08T10:37:21.285Z,100189.16
2023-08-08T10:38:28.014Z,100193.47
2023-08-08T10:39:31.747Z,100200.13
2023-08-08T10:40:34.465Z,100198.63
2023-08-08T10:41:46.891Z,100205.66
2023-08-08T10:42:49.168Z,100200.06
2023-08-08T10:43:52.802Z,100198.50
2023-08-08T10:44:57.282Z,100197.41
2023-08-08T10:46:12.882Z,100209.63
2023-08-08T10:47:16.026Z,100196.97
2023-08-08T10:48:21.318Z,100197.88
2023-08-08T10:49:24.122Z,100183.50
2023-08-08T10:50:26.693Z,100192.00
2023-08-08T10:51:44.087Z,100195.56
2023-08-08T10:52:53.671Z,100179.88
2023-08-08T10:53:56.922Z,100193.16
2023-08-08T10:54:59.031Z,100183.16
2023-08-08T10:56:05.229Z,100190.59
2023-08-08T10:57:17.187Z,100188.06
2023-08-08T10:58:21.140Z,100186.38
2023-08-08T10:59:25.062Z,100178.50
2023-08-08T11:00:32.684Z,100177.06
2023-08-08T11:01:35.893Z,100180.34
2023-08-08T11:02:39.911Z,100183.78
2023-08-08T11:03:42.690Z,100186.50
2023-08-08T11:04:45.758Z,100182.88
2023-08-08T11:05:52.311Z,100176.38
2023-08-08T11:06:55.546Z,100184.69
2023-08-08T11:07:59.151Z,100188.63
2023-08-08T11:09:02.424Z,100182.06
2023-08-08T11:10:05.263Z,100178.06
2023-08-08T11:11:08.089Z,100167.31
2023-08-08T11:12:17.014Z,100178.88
2023-08-08T11:13:19.438Z,100179.94
2023-08-08T11:14:23.196Z,100178.25
2023-08-08T11:15:25.936Z,100177.66
2023-08-08T11:16:28.475Z,100183.09
2023-08-08T11:17:31.215Z,100186.41
2023-08-08T11:18:33.696Z,100170.38
2023-08-08T11:19:42.465Z,100178.88
2023-08-08T11:20:45.277Z,100172.00
2023-08-08T11:21:49.353Z,100167.66
2023-08-08T11:22:56.068Z,100169.88
2023-08-08T11:23:58.935Z,100160.50
2023-08-08T11:25:04.594Z,100175.81
2023-08-08T11:27:12.791Z,100160.22
2023-08-08T11:28:16.124Z,100156.97
2023-08-08T11:29:18.423Z,100156.97
2023-08-08T11:30:22.208Z,100154.44
2023-08-08T11:31:26.348Z,100148.50
2023-08-08T11:32:29.419Z,100153.00
2023-08-08T11:33:32.661Z,100155.91
2023-08-08T11:34:34.937Z,100155.22
2023-08-08T11:35:37.183Z,100147.72
2023-08-08T11:36:40.189Z,100162.09
2023-08-08T11:37:42.665Z,100149.63
2023-08-08T11:38:45.591Z,100149.69
2023-08-08T11:39:48.449Z,100143.97
2023-08-08T11:40:51.114Z,100148.59
2023-08-08T11:41:53.948Z,100147.19
2023-08-08T11:43:00.430Z,100142.00
2023-08-08T11:44:06.395Z,100144.47
2023-08-08T11:45:12.423Z,100140.16
2023-08-08T11:46:16.350Z,100155.44
2023-08-08T11:47:19.115Z,100149.44
2023-08-08T11:48:22.406Z,100143.59
2023-08-08T11:49:24.624Z,100151.38
2023-08-08T11:50:28.527Z,100136.47
2023-08-08T11:51:30.978Z,100142.88
2023-08-08T11:52:33.965Z,100155.94
2023-08-08T11:53:39.407Z,100136.31
2023-08-08T11:54:42.352Z,100145.59
2023-08-08T11:55:45.728Z,100145.78
2023-08-08T11:56:48.389Z,100136.72
2023-08-08T11:57:51.121Z,100133.13
2023-08-08T11:58:53.640Z,100144.47
2023-08-08T11:59:56.014Z,100142.31
2023-08-08T12:00:58.586Z,100129.84
2023-08-08T12:02:01.976Z,100132.25
2023-08-08T12:03:05.877Z,100132.25
2023-08-08T12:04:10.211Z,100121.81
2023-08-08T12:05:18.254Z,100125.13